Time;durP1;ratioP1;P1;durP2;ratioP2;P2;SDS_P1;SDS_P2;PMS_P1;PMS_P2;Temp;Humidity;BMP_temperature;BMP_pressure;BME280_temperature;BME280_humidity;BME280_pressure;Samples;Min_cycle;Max_cycle;Signal;HPM_P1;HPM_P2
2022/04/27 00:01:22;;;;;;;7.00;2.87;;;10.70;72.20;;;;;;619817;230;26608;-68
2022/04/27 00:03:49;;;;;;;9.50;2.72;;;10.60;72.80;;;;;;617710;231;26648;-71
2022/04/27 00:06:17;;;;;;;5.43;2.58;;;10.50;74.20;;;;;;619048;230;26795;-70
2022/04/27 00:08:44;;;;;;;2.65;2.45;;;10.40;73.90;;;;;;615134;233;26567;-70
2022/04/27 00:11:11;;;;;;;2.00;1.90;;;10.30;75.60;;;;;;615800;231;26791;-70
2022/04/27 00:13:38;;;;;;;3.60;2.45;;;10.20;73.80;;;;;;615133;231;26562;-70
2022/04/27 00:16:06;;;;;;;2.10;2.00;;;10.10;74.90;;;;;;613852;231;27336;-70
2022/04/27 00:18:33;;;;;;;2.40;2.20;;;10.10;73.50;;;;;;615170;230;26587;-70
2022/04/27 00:21:00;;;;;;;2.37;2.00;;;10.00;73.60;;;;;;618596;231;26829;-70
2022/04/27 00:23:27;;;;;;;4.18;2.30;;;10.00;73.90;;;;;;621408;227;26562;-70
2022/04/27 00:25:54;;;;;;;2.10;1.90;;;9.90;77.40;;;;;;617240;231;27236;-70
2022/04/27 00:28:22;;;;;;;2.60;2.15;;;9.90;75.80;;;;;;618548;231;26595;-70
2022/04/27 00:30:50;;;;;;;2.20;2.10;;;9.80;76.60;;;;;;614142;231;26552;-70
2022/04/27 00:33:17;;;;;;;3.22;1.83;;;9.80;76.60;;;;;;612865;233;26587;-70
2022/04/27 00:35:44;;;;;;;2.53;2.35;;;9.80;77.60;;;;;;614789;231;26615;-70
2022/04/27 00:38:12;;;;;;;2.05;1.75;;;9.70;77.80;;;;;;614299;231;26843;-70
2022/04/27 00:40:39;;;;;;;2.03;1.80;;;9.60;77.50;;;;;;620007;231;26627;-70
2022/04/27 00:43:06;;;;;;;3.87;2.05;;;9.60;79.30;;;;;;613247;234;26610;-70
2022/04/27 00:45:34;;;;;;;2.17;1.90;;;9.50;77.90;;;;;;618941;231;26559;-70
2022/04/27 00:48:02;;;;;;;2.10;2.00;;;9.50;78.80;;;;;;613438;231;26610;-70
2022/04/27 00:50:29;;;;;;;3.72;2.15;;;9.40;78.40;;;;;;614794;231;27241;-70
2022/04/27 00:52:56;;;;;;;2.65;1.95;;;9.40;78.50;;;;;;619210;231;26555;-72
2022/04/27 00:55:24;;;;;;;2.10;1.90;;;9.40;79.10;;;;;;622255;231;26585;-70
2022/04/27 00:57:52;;;;;;;2.00;1.90;;;9.30;78.60;;;;;;618397;231;26584;-70
2022/04/27 01:00:19;;;;;;;2.03;1.92;;;9.40;78.60;;;;;;615563;233;26831;-70
2022/04/27 01:02:47;;;;;;;1.80;1.70;;;9.40;79.40;;;;;;615451;231;26603;-70
2022/04/27 01:05:14;;;;;;;2.90;2.60;;;9.40;79.10;;;;;;613485;231;26930;-70
2022/04/27 01:07:41;;;;;;;2.47;2.22;;;9.30;78.90;;;;;;613462;233;26596;-69
2022/04/27 01:10:08;;;;;;;2.40;2.20;;;9.30;79.30;;;;;;613859;231;26591;-70
2022/04/27 01:12:36;;;;;;;2.20;2.00;;;9.10;80.70;;;;;;613903;234;27168;-70
2022/04/27 01:15:05;;;;;;;2.33;2.12;;;9.00;80.70;;;;;;620070;230;27388;-70
2022/04/27 01:17:33;;;;;;;2.37;2.17;;;9.00;80.80;;;;;;623129;230;26594;-70
2022/04/27 01:20:00;;;;;;;2.87;1.92;;;9.00;81.20;;;;;;616923;230;27307;-71
2022/04/27 01:22:28;;;;;;;2.53;2.00;;;8.90;81.10;;;;;;617693;230;26798;-71
2022/04/27 01:24:57;;;;;;;2.50;1.90;;;8.80;81.30;;;;;;616758;230;26603;-70
2022/04/27 01:27:23;;;;;;;2.20;2.00;;;8.80;81.90;;;;;;618387;231;26645;-70
2022/04/27 01:29:51;;;;;;;2.58;2.30;;;8.70;81.80;;;;;;613890;231;26602;-70
2022/04/27 01:32:18;;;;;;;2.12;1.92;;;8.70;82.30;;;;;;618231;231;26533;-70
2022/04/27 01:34:45;;;;;;;2.35;2.15;;;8.60;82.60;;;;;;616010;231;26838;-70
2022/04/27 01:39:45;;;;;;;2.83;2.05;;;8.50;84.70;;;;;;621202;230;26713;-70
2022/04/27 01:42:12;;;;;;;2.90;2.00;;;8.50;84.60;;;;;;616589;230;26790;-70
2022/04/27 01:44:39;;;;;;;2.00;1.90;;;8.50;84.70;;;;;;614940;228;26606;-70
2022/04/27 01:47:06;;;;;;;2.10;2.00;;;8.50;83.70;;;;;;614983;230;27192;-70
2022/04/27 01:49:34;;;;;;;1.90;1.80;;;8.40;84.80;;;;;;613591;230;26561;-70
2022/04/27 01:54:34;;;;;;;2.87;2.45;;;8.30;85.50;;;;;;613936;233;26603;-70
2022/04/27 01:57:01;;;;;;;2.08;1.87;;;8.30;84.90;;;;;;613489;231;26660;-70
2022/04/27 01:59:28;;;;;;;2.22;1.92;;;8.30;85.30;;;;;;613601;231;26983;-70
2022/04/27 02:01:57;;;;;;;2.00;1.90;;;8.30;85.20;;;;;;615789;231;26578;-70
2022/04/27 02:04:23;;;;;;;2.25;2.12;;;8.30;86.30;;;;;;618093;231;26614;-70
2022/04/27 02:06:50;;;;;;;3.10;2.20;;;8.20;86.40;;;;;;615659;231;26598;-70
2022/04/27 02:09:18;;;;;;;2.15;2.05;;;8.10;86.00;;;;;;615531;231;26605;-70
2022/04/27 02:11:46;;;;;;;2.05;1.95;;;8.10;86.00;;;;;;618994;231;26988;-70
2022/04/27 02:14:13;;;;;;;2.00;1.90;;;8.20;85.80;;;;;;614788;231;26557;-70
2022/04/27 02:16:40;;;;;;;2.67;1.95;;;8.10;87.00;;;;;;616309;231;26861;-70
2022/04/27 02:19:07;;;;;;;2.00;1.90;;;8.20;88.10;;;;;;615128;228;26549;-70
2022/04/27 02:21:35;;;;;;;2.12;2.03;;;8.10;86.10;;;;;;612992;233;26572;-70
2022/04/27 02:24:02;;;;;;;2.30;2.10;;;8.10;86.80;;;;;;616933;231;26575;-70
2022/04/27 02:26:29;;;;;;;2.75;2.55;;;8.10;86.40;;;;;;616071;231;27487;-70
2022/04/27 02:28:57;;;;;;;2.22;2.10;;;7.90;86.60;;;;;;617256;231;26587;-70
2022/04/27 02:31:25;;;;;;;2.12;2.03;;;7.90;86.60;;;;;;616479;230;26574;-70
2022/04/27 02:33:52;;;;;;;2.25;1.95;;;7.90;87.30;;;;;;617736;231;26830;-70
2022/04/27 02:36:21;;;;;;;2.20;2.00;;;7.90;87.40;;;;;;618448;231;26569;-70
2022/04/27 02:38:47;;;;;;;2.10;2.00;;;7.80;86.20;;;;;;615505;231;26804;-70
2022/04/27 02:41:14;;;;;;;2.25;2.12;;;7.80;89.60;;;;;;622635;230;26660;-70
2022/04/27 02:43:41;;;;;;;2.50;2.40;;;7.80;89.60;;;;;;613157;230;27186;-70
2022/04/27 02:46:09;;;;;;;2.17;1.98;;;7.70;88.30;;;;;;612785;231;26556;-70
2022/04/27 02:51:48;;;;;;;2.05;1.95;;;7.70;86.70;;;;;;616723;230;26577;-70
2022/04/27 02:53:37;;;;;;;5.72;2.58;;;7.70;86.20;;;;;;617957;230;26839;-71
2022/04/27 02:56:06;;;;;;;8.18;2.95;;;7.70;86.10;;;;;;612515;234;26575;-70
2022/04/27 02:58:33;;;;;;;5.12;2.72;;;7.70;86.10;;;;;;613726;233;26620;-70
2022/04/27 03:01:00;;;;;;;7.18;2.97;;;7.80;86.10;;;;;;617123;231;26558;-67
2022/04/27 03:03:27;;;;;;;3.65;2.03;;;7.80;86.70;;;;;;613630;231;26614;-67
2022/04/27 03:05:55;;;;;;;4.43;2.12;;;7.60;86.30;;;;;;614395;231;26798;-66
2022/04/27 03:08:23;;;;;;;1.80;1.70;;;7.60;86.30;;;;;;617306;231;26647;-67
2022/04/27 03:10:50;;;;;;;2.20;1.95;;;7.60;86.10;;;;;;617806;231;26623;-67
2022/04/27 03:13:18;;;;;;;2.20;2.00;;;7.60;86.00;;;;;;619487;231;26605;-66
2022/04/27 03:15:45;;;;;;;2.15;2.05;;;7.60;86.40;;;;;;614460;230;26822;-66
2022/04/27 03:18:17;;;;;;;2.17;1.98;;;7.60;85.60;;;;;;617230;231;26614;-66
2022/04/27 03:20:44;;;;;;;2.35;2.10;;;7.60;86.30;;;;;;621999;231;26572;-66
2022/04/27 03:23:11;;;;;;;1.70;1.60;;;7.60;87.20;;;;;;616715;231;26592;-65
2022/04/27 03:25:39;;;;;;;2.35;1.90;;;7.50;85.50;;;;;;612789;234;26589;-68
2022/04/27 03:28:07;;;;;;;2.10;1.75;;;7.40;85.50;;;;;;615586;233;26635;-68
2022/04/27 03:30:34;;;;;;;3.17;1.87;;;7.40;85.50;;;;;;615307;228;26828;-67
2022/04/27 03:33:01;;;;;;;1.98;1.87;;;7.40;85.60;;;;;;615141;231;26553;-67
2022/04/27 03:35:29;;;;;;;1.77;1.67;;;7.40;85.40;;;;;;617519;231;26838;-68
2022/04/27 03:37:58;;;;;;;1.98;1.87;;;7.40;85.90;;;;;;614028;232;27027;-67
2022/04/27 03:40:24;;;;;;;4.43;1.90;;;7.40;85.70;;;;;;615425;232;26561;-67
2022/04/27 03:42:52;;;;;;;2.92;1.67;;;7.40;85.50;;;;;;618824;231;26646;-67
2022/04/27 03:45:20;;;;;;;1.98;1.87;;;7.40;85.80;;;;;;614824;231;26556;-66
2022/04/27 03:47:48;;;;;;;1.87;1.70;;;7.40;85.20;;;;;;622161;229;26633;-67
2022/04/27 03:50:15;;;;;;;1.77;1.67;;;7.40;85.20;;;;;;621655;230;26847;-68
2022/04/27 03:52:42;;;;;;;2.53;1.90;;;7.30;85.20;;;;;;621680;226;26609;-67
2022/04/27 03:55:10;;;;;;;2.10;1.90;;;7.40;85.50;;;;;;621584;230;26878;-67
2022/04/27 03:57:38;;;;;;;2.33;1.98;;;7.40;85.40;;;;;;614256;231;26583;-67
2022/04/27 04:00:07;;;;;;;1.67;1.58;;;7.40;85.90;;;;;;621359;231;26562;-67
2022/04/27 04:02:36;;;;;;;2.03;1.90;;;7.40;86.30;;;;;;621416;231;26590;-67
2022/04/27 04:05:02;;;;;;;1.87;1.77;;;7.40;86.20;;;;;;615060;231;26567;-67
2022/04/27 04:07:29;;;;;;;2.05;1.95;;;7.40;86.20;;;;;;615822;231;26649;-68
2022/04/27 04:09:57;;;;;;;2.00;1.87;;;7.30;85.60;;;;;;619921;231;26932;-67
2022/04/27 04:12:23;;;;;;;2.53;1.58;;;7.40;85.60;;;;;;614375;233;26544;-68
2022/04/27 04:14:51;;;;;;;2.28;1.62;;;7.40;87.60;;;;;;614359;233;26811;-66
2022/04/27 04:17:19;;;;;;;2.00;1.80;;;7.40;85.00;;;;;;619981;231;26596;-66
2022/04/27 04:19:47;;;;;;;1.60;1.50;;;7.40;85.10;;;;;;612469;235;26609;-67
2022/04/27 04:22:14;;;;;;;2.67;1.70;;;7.40;85.10;;;;;;613597;234;26809;-67
2022/04/27 04:28:29;;;;;;;2.08;1.87;;;7.40;85.00;;;;;;615574;233;26556;-67
2022/04/27 04:29:43;;;;;;;1.85;1.75;;;7.50;86.20;;;;;;612576;230;26572;-67
2022/04/27 04:32:11;;;;;;;1.92;1.62;;;7.70;87.50;;;;;;613565;234;26578;-67
2022/04/27 04:34:38;;;;;;;1.87;1.77;;;7.60;87.30;;;;;;613853;233;26818;-67
2022/04/27 04:37:06;;;;;;;1.87;1.77;;;7.70;86.60;;;;;;614767;233;26609;-67
2022/04/27 04:39:33;;;;;;;1.70;1.60;;;7.70;88.30;;;;;;613480;231;26902;-67
2022/04/27 04:42:00;;;;;;;2.12;1.85;;;7.80;84.10;;;;;;618743;231;26577;-67
2022/04/27 04:44:27;;;;;;;1.92;1.83;;;7.80;83.60;;;;;;613840;233;26581;-67
2022/04/27 04:46:55;;;;;;;2.33;2.12;;;7.90;87.50;;;;;;620875;231;26642;-67
2022/04/27 04:49:22;;;;;;;1.60;1.58;;;7.90;87.40;;;;;;617885;231;26600;-69
2022/04/27 04:51:49;;;;;;;2.30;1.75;;;7.90;83.00;;;;;;621290;231;26591;-67
2022/04/27 04:54:16;;;;;;;1.77;1.67;;;8.00;82.30;;;;;;615304;233;26840;-66
2022/04/27 04:56:44;;;;;;;2.20;1.73;;;8.10;83.40;;;;;;615184;233;26572;-66
2022/04/27 04:59:11;;;;;;;1.70;1.60;;;8.10;81.90;;;;;;616212;233;26817;-67
2022/04/27 05:01:39;;;;;;;3.03;2.28;;;8.30;82.30;;;;;;615768;233;26549;-67
2022/04/27 05:04:07;;;;;;;1.67;1.67;;;8.40;80.60;;;;;;615725;231;26625;-68
2022/04/27 05:06:34;;;;;;;2.00;1.90;;;8.40;80.60;;;;;;622978;230;26822;-67
2022/04/27 05:09:01;;;;;;;1.87;1.77;;;8.50;80.50;;;;;;622220;230;26593;-67
2022/04/27 05:11:28;;;;;;;1.60;1.50;;;8.60;80.00;;;;;;613687;231;26786;-67
2022/04/27 05:13:56;;;;;;;1.87;1.77;;;8.70;80.50;;;;;;612624;235;26544;-71
2022/04/27 05:16:25;;;;;;;8.02;1.90;;;8.80;81.00;;;;;;614528;231;26840;-67
2022/04/27 05:18:51;;;;;;;2.25;1.80;;;8.80;79.50;;;;;;617799;231;26574;-67
2022/04/27 05:21:18;;;;;;;1.65;1.60;;;8.90;78.70;;;;;;615772;233;26847;-68
2022/04/27 05:23:45;;;;;;;3.67;2.00;;;9.00;78.10;;;;;;615217;233;26620;-68
2022/04/27 05:26:12;;;;;;;2.72;1.70;;;9.00;78.00;;;;;;613580;233;26565;-69
2022/04/27 05:33:46;;;;;;;3.17;2.90;;;9.40;76.80;;;;;;624994;229;26837;-68
2022/04/27 05:36:13;;;;;;;3.40;3.20;;;9.50;76.70;;;;;;619123;231;26572;-67
2022/04/27 05:38:40;;;;;;;3.03;2.83;;;9.60;76.80;;;;;;618696;231;27312;-69
2022/04/27 05:41:07;;;;;;;3.75;3.45;;;9.60;76.50;;;;;;621101;231;26612;-67
2022/04/27 05:43:34;;;;;;;2.78;2.58;;;9.60;75.70;;;;;;623228;231;26561;-67
2022/04/27 05:46:03;;;;;;;4.50;2.58;;;9.70;76.20;;;;;;619479;231;26529;-68
2022/04/27 05:48:30;;;;;;;6.32;1.77;;;9.70;76.20;;;;;;614035;234;26575;-67
2022/04/27 05:50:57;;;;;;;3.12;2.92;;;9.80;76.00;;;;;;615034;231;26637;-67
2022/04/27 05:53:25;;;;;;;4.53;3.45;;;9.90;75.30;;;;;;601877;235;26879;-67
2022/04/27 05:55:52;;;;;;;3.55;3.25;;;10.00;73.10;;;;;;619661;231;26570;-67
2022/04/27 05:58:20;;;;;;;1.60;1.48;;;10.30;71.20;;;;;;614867;228;26594;-66
2022/04/27 06:00:49;;;;;;;1.90;1.62;;;10.40;70.90;;;;;;613210;232;26619;-66
2022/04/27 06:03:16;;;;;;;2.05;1.95;;;10.50;70.30;;;;;;613720;233;26618;-67
2022/04/27 06:05:43;;;;;;;1.90;1.80;;;10.50;70.40;;;;;;613362;232;26587;-67
2022/04/27 06:08:10;;;;;;;2.85;2.55;;;10.60;69.30;;;;;;620985;231;26586;-67
2022/04/27 06:10:37;;;;;;;5.15;4.65;;;10.80;68.70;;;;;;615093;232;26905;-67
2022/04/27 06:13:05;;;;;;;4.28;3.90;;;10.90;67.70;;;;;;614809;233;26568;-67
2022/04/27 06:15:32;;;;;;;4.45;4.07;;;11.10;66.90;;;;;;613888;233;26615;-66
2022/04/27 06:18:00;;;;;;;4.95;4.20;;;11.10;66.70;;;;;;620354;231;26635;-67
2022/04/27 06:20:27;;;;;;;2.92;2.62;;;11.20;66.60;;;;;;614964;232;26616;-67
2022/04/27 06:22:55;;;;;;;3.67;3.37;;;11.20;66.80;;;;;;614197;233;26816;-67
2022/04/27 06:25:22;;;;;;;2.33;2.12;;;11.10;66.70;;;;;;615750;232;26855;-67
2022/04/27 06:27:49;;;;;;;2.35;2.17;;;11.10;67.20;;;;;;615827;233;26646;-67
2022/04/27 06:30:16;;;;;;;4.75;4.28;;;11.30;67.70;;;;;;613455;233;26779;-68
2022/04/27 06:32:44;;;;;;;1.70;1.60;;;11.30;67.10;;;;;;618078;231;26614;-67
2022/04/27 06:35:13;;;;;;;4.37;4.00;;;11.30;66.90;;;;;;618029;231;27214;-68
2022/04/27 06:37:38;;;;;;;3.97;3.58;;;11.40;66.30;;;;;;613050;233;26628;-67
2022/04/27 06:40:06;;;;;;;4.65;3.35;;;11.40;65.90;;;;;;615221;231;26527;-68
2022/04/27 06:42:33;;;;;;;2.25;1.30;;;11.50;65.60;;;;;;615955;231;26832;-67
2022/04/27 06:45:00;;;;;;;3.10;2.90;;;11.50;65.60;;;;;;614570;231;26620;-67
2022/04/27 06:47:28;;;;;;;1.80;1.50;;;11.70;64.90;;;;;;614448;231;27222;-67
2022/04/27 06:49:56;;;;;;;2.70;1.90;;;11.70;64.90;;;;;;615281;231;26822;-68
2022/04/27 06:52:23;;;;;;;3.20;2.28;;;11.80;64.50;;;;;;616391;231;26612;-67
2022/04/27 06:54:50;;;;;;;2.78;1.50;;;11.90;64.40;;;;;;615213;231;27261;-67
2022/04/27 06:57:19;;;;;;;2.20;1.90;;;12.00;63.70;;;;;;615906;231;26584;-68
2022/04/27 06:59:47;;;;;;;1.35;1.25;;;12.20;63.50;;;;;;614796;231;26577;-68
2022/04/27 07:02:15;;;;;;;1.42;1.40;;;12.20;63.30;;;;;;616037;231;26615;-67
2022/04/27 07:04:48;;;;;;;2.00;1.90;;;12.20;63.30;;;;;;617693;231;26653;-68
2022/04/27 07:07:09;;;;;;;2.08;1.52;;;12.10;65.30;;;;;;616163;231;26619;-67
2022/04/27 07:09:37;;;;;;;6.15;1.80;;;12.40;63.80;;;;;;615005;230;27282;-68
2022/04/27 07:12:06;;;;;;;1.62;1.52;;;12.50;63.50;;;;;;616496;229;26814;-68
2022/04/27 07:14:33;;;;;;;7.85;1.80;;;12.40;63.40;;;;;;616138;230;26581;-67
2022/04/27 07:17:00;;;;;;;2.97;1.65;;;12.50;64.20;;;;;;615822;231;26853;-68
2022/04/27 07:19:27;;;;;;;2.67;1.55;;;12.60;63.40;;;;;;616261;230;26561;-67
2022/04/27 07:21:55;;;;;;;5.60;1.90;;;12.50;63.30;;;;;;616715;230;26838;-67
2022/04/27 07:24:24;;;;;;;2.50;1.95;;;12.40;63.10;;;;;;614761;231;27302;-68
2022/04/27 07:26:50;;;;;;;2.70;1.90;;;12.60;63.00;;;;;;615548;231;26644;-68
2022/04/27 07:29:17;;;;;;;1.83;1.73;;;12.80;62.10;;;;;;616455;230;27128;-68
2022/04/27 07:31:45;;;;;;;2.00;1.75;;;12.70;60.90;;;;;;615870;231;26576;-67
2022/04/27 07:34:13;;;;;;;7.20;2.08;;;12.80;60.80;;;;;;614132;230;26593;-68
2022/04/27 07:36:41;;;;;;;2.58;2.08;;;12.90;60.60;;;;;;615890;231;26629;-68
2022/04/27 07:39:09;;;;;;;5.43;2.15;;;13.00;60.70;;;;;;615409;231;26926;-67
2022/04/27 07:41:36;;;;;;;4.12;1.95;;;13.00;60.70;;;;;;614810;231;26572;-66
2022/04/27 07:44:03;;;;;;;5.50;2.00;;;13.10;60.20;;;;;;615094;231;26551;-67
2022/04/27 07:46:31;;;;;;;3.80;2.10;;;13.30;59.40;;;;;;615327;230;26619;-67
2022/04/27 07:48:59;;;;;;;4.70;2.30;;;13.30;58.70;;;;;;614853;230;26553;-68
2022/04/27 07:51:26;;;;;;;6.75;1.70;;;13.30;58.70;;;;;;613854;231;26557;-69
2022/04/27 07:53:53;;;;;;;4.32;2.00;;;13.40;58.70;;;;;;613135;233;26554;-67
2022/04/27 07:56:21;;;;;;;7.68;1.90;;;13.40;57.80;;;;;;614188;234;26800;-70
2022/04/27 07:58:48;;;;;;;3.28;1.87;;;13.50;57.80;;;;;;619455;231;26611;-72
2022/04/27 08:01:15;;;;;;;12.75;2.50;;;13.50;57.70;;;;;;617130;230;26782;-74
2022/04/27 08:03:43;;;;;;;18.95;2.95;;;13.60;57.80;;;;;;616553;231;26772;-75
2022/04/27 08:06:10;;;;;;;4.70;2.30;;;13.50;56.90;;;;;;619045;231;26569;-70
2022/04/27 08:08:38;;;;;;;7.37;1.92;;;13.60;56.20;;;;;;618774;231;27311;-71
2022/04/27 08:11:07;;;;;;;3.80;2.25;;;13.70;55.80;;;;;;613173;234;26598;-69
2022/04/27 08:13:33;;;;;;;6.30;2.15;;;13.70;55.60;;;;;;615678;231;26573;-68
2022/04/27 08:16:01;;;;;;;3.03;1.70;;;13.80;55.90;;;;;;617151;231;26652;-68
2022/04/27 08:18:29;;;;;;;6.70;1.90;;;13.80;52.80;;;;;;613880;233;26580;-69
2022/04/27 08:23:29;;;;;;;6.25;2.20;;;13.70;52.90;;;;;;620156;229;26638;-69
2022/04/27 08:25:57;;;;;;;4.55;2.05;;;13.80;51.90;;;;;;613951;231;26939;-69
2022/04/27 08:28:25;;;;;;;2.85;2.08;;;13.80;51.10;;;;;;613726;232;26816;-69
2022/04/27 08:30:53;;;;;;;1.95;1.83;;;14.00;50.90;;;;;;614087;233;26563;-69
2022/04/27 08:33:21;;;;;;;7.12;1.92;;;14.10;50.50;;;;;;615828;232;26557;-68
2022/04/27 08:35:49;;;;;;;4.57;1.30;;;14.20;53.00;;;;;;617275;231;26568;-69
2022/04/27 08:38:17;;;;;;;3.17;1.60;;;14.20;53.70;;;;;;619219;230;26603;-69
2022/04/27 08:40:44;;;;;;;11.30;1.87;;;14.20;53.60;;;;;;614315;232;26598;-69
2022/04/27 08:43:11;;;;;;;3.45;1.30;;;14.40;54.00;;;;;;615161;233;26789;-69
2022/04/27 08:45:42;;;;;;;3.00;1.60;;;14.40;53.80;;;;;;613178;233;26641;-69
2022/04/27 08:48:11;;;;;;;5.22;1.75;;;14.50;53.20;;;;;;617861;231;26868;-68
2022/04/27 08:50:38;;;;;;;2.42;1.58;;;14.60;51.50;;;;;;621411;231;26551;-68
2022/04/27 08:53:06;;;;;;;2.72;1.50;;;14.60;50.80;;;;;;614900;231;26572;-68
2022/04/27 08:55:36;;;;;;;2.87;1.75;;;14.50;51.60;;;;;;615323;232;26607;-69
2022/04/27 08:58:08;;;;;;;1.60;1.50;;;14.50;51.60;;;;;;616283;230;26584;-69
2022/04/27 09:00:34;;;;;;;2.83;1.60;;;14.40;51.50;;;;;;623865;230;26581;-69
2022/04/27 09:03:13;;;;;;;3.33;1.70;;;14.50;50.80;;;;;;618265;230;26576;-69
2022/04/27 09:05:40;;;;;;;1.60;1.48;;;14.60;49.50;;;;;;614057;234;26554;-69
2022/04/27 09:08:08;;;;;;;2.80;1.70;;;14.50;49.70;;;;;;616676;231;26829;-68
2022/04/27 09:10:35;;;;;;;1.87;1.58;;;14.30;49.50;;;;;;616822;231;26582;-69
2022/04/27 09:13:02;;;;;;;1.65;1.55;;;14.30;50.20;;;;;;618464;231;26805;-69
2022/04/27 09:15:29;;;;;;;2.60;1.33;;;14.50;49.50;;;;;;615204;228;26613;-69
2022/04/27 09:23:03;;;;;;;1.77;1.48;;;15.20;49.70;;;;;;613291;233;26564;-66
2022/04/27 09:25:32;;;;;;;1.40;1.30;;;15.20;49.60;;;;;;615006;233;26802;-67
2022/04/27 09:28:00;;;;;;;4.35;1.62;;;15.80;50.80;;;;;;612438;234;27298;-67
2022/04/27 09:30:27;;;;;;;1.73;1.62;;;15.80;50.70;;;;;;613947;233;26821;-67
2022/04/27 09:32:54;;;;;;;2.35;1.60;;;15.80;49.10;;;;;;613494;233;26545;-67
2022/04/27 09:35:32;;;;;;;2.00;1.55;;;15.90;48.40;;;;;;613227;232;27025;-68
2022/04/27 09:37:57;;;;;;;1.50;1.40;;;15.70;48.70;;;;;;615922;231;26562;-68
2022/04/27 09:40:24;;;;;;;1.52;1.30;;;15.80;48.10;;;;;;615719;230;26610;-66
2022/04/27 09:42:59;;;;;;;1.65;1.60;;;15.60;48.10;;;;;;615904;230;26816;-66
2022/04/27 09:45:20;;;;;;;1.85;1.50;;;15.50;47.30;;;;;;612930;233;26607;-67
2022/04/27 09:47:48;;;;;;;2.90;1.50;;;15.50;46.10;;;;;;613356;233;26619;-67
2022/04/27 09:50:16;;;;;;;1.25;1.25;;;15.40;47.10;;;;;;614425;232;26597;-67
2022/04/27 09:52:44;;;;;;;1.90;1.73;;;15.40;47.10;;;;;;614325;232;26610;-67
2022/04/27 09:55:11;;;;;;;1.65;1.30;;;15.60;47.60;;;;;;615209;233;26638;-66
2022/04/27 09:57:38;;;;;;;1.60;1.50;;;15.80;48.90;;;;;;613168;230;26844;-67
2022/04/27 10:00:05;;;;;;;1.40;1.30;;;15.80;47.60;;;;;;613712;233;26561;-66
2022/04/27 10:02:32;;;;;;;2.62;1.40;;;15.80;47.50;;;;;;614249;233;26603;-67
2022/04/27 10:05:00;;;;;;;2.83;1.65;;;15.60;47.20;;;;;;614891;233;26854;-66
2022/04/27 10:07:32;;;;;;;1.77;1.50;;;15.50;46.50;;;;;;616363;230;26696;-66
2022/04/27 10:09:58;;;;;;;1.40;1.30;;;15.40;45.70;;;;;;615723;230;26769;-67
2022/04/27 10:12:25;;;;;;;2.47;1.45;;;15.30;46.00;;;;;;613938;233;26557;-67
2022/04/27 10:14:53;;;;;;;1.50;1.40;;;15.50;45.70;;;;;;616727;231;27218;-67
2022/04/27 10:17:20;;;;;;;1.30;1.30;;;15.50;45.70;;;;;;616212;231;26783;-69
2022/04/27 10:19:48;;;;;;;1.20;1.20;;;15.60;45.80;;;;;;613045;233;26553;-68
2022/04/27 10:22:27;;;;;;;2.92;1.42;;;15.80;46.00;;;;;;614293;233;26793;-68
2022/04/27 10:24:55;;;;;;;1.37;1.27;;;16.10;45.00;;;;;;614536;228;26765;-66
2022/04/27 10:27:23;;;;;;;1.85;1.52;;;16.30;44.90;;;;;;615022;231;26662;-68
2022/04/27 10:29:51;;;;;;;1.30;1.20;;;16.80;46.10;;;;;;614789;231;26607;-67
2022/04/27 10:32:29;;;;;;;1.50;1.40;;;17.10;45.20;;;;;;618946;231;26696;-67
2022/04/27 10:35:18;;;;;;;1.58;1.48;;;17.20;44.90;;;;;;613835;228;26549;-67
2022/04/27 10:37:51;;;;;;;1.55;1.45;;;17.30;45.20;;;;;;620140;231;26603;-66
2022/04/27 10:40:32;;;;;;;1.55;1.27;;;17.00;45.20;;;;;;616404;231;26567;-67
2022/04/27 10:43:03;;;;;;;1.95;1.23;;;16.90;45.30;;;;;;615399;231;26591;-67
2022/04/27 10:45:30;;;;;;;1.60;1.50;;;16.70;45.80;;;;;;619587;231;26874;-65
2022/04/27 10:47:57;;;;;;;1.37;1.27;;;16.50;46.30;;;;;;614916;230;26657;-67
2022/04/27 10:50:28;;;;;;;2.25;1.30;;;16.40;45.30;;;;;;616105;231;26813;-67
2022/04/27 10:52:55;;;;;;;1.50;1.40;;;16.30;45.20;;;;;;615439;233;26566;-67
2022/04/27 10:55:32;;;;;;;2.17;1.25;;;16.50;44.80;;;;;;613890;231;26594;-68
2022/04/27 10:58:11;;;;;;;1.17;1.17;;;17.00;44.90;;;;;;620072;230;26626;-67
2022/04/27 11:00:51;;;;;;;1.17;1.17;;;17.80;44.70;;;;;;613879;233;26854;-67
2022/04/27 11:03:19;;;;;;;1.50;1.40;;;17.70;44.60;;;;;;620197;231;26611;-68
2022/04/27 11:05:46;;;;;;;3.20;1.12;;;17.40;45.10;;;;;;615898;233;27181;-66
2022/04/27 11:08:17;;;;;;;1.25;1.17;;;17.20;44.70;;;;;;618100;231;26594;-66
2022/04/27 11:10:44;;;;;;;3.05;1.42;;;17.10;44.60;;;;;;614893;233;26569;-67
2022/04/27 11:13:12;;;;;;;2.25;1.40;;;16.90;44.30;;;;;;614259;231;26544;-67
2022/04/27 11:15:39;;;;;;;2.08;1.35;;;16.30;43.80;;;;;;614799;233;26633;-66
2022/04/27 11:18:08;;;;;;;1.15;1.15;;;16.40;44.10;;;;;;614752;228;26635;-67
2022/04/27 11:20:37;;;;;;;1.50;1.40;;;16.80;44.40;;;;;;617386;231;26547;-67
2022/04/27 11:23:07;;;;;;;1.75;1.23;;;16.70;44.30;;;;;;617062;231;26814;-67
2022/04/27 11:25:33;;;;;;;1.35;1.25;;;17.50;43.70;;;;;;620506;230;26614;-67
2022/04/27 11:28:00;;;;;;;1.50;1.33;;;17.50;43.70;;;;;;614628;233;26583;-67
2022/04/27 11:30:27;;;;;;;1.00;1.00;;;17.80;43.60;;;;;;613845;234;26815;-66
2022/04/27 11:32:55;;;;;;;1.30;1.20;;;18.10;42.80;;;;;;615966;234;26533;-66
2022/04/27 11:35:24;;;;;;;1.65;1.52;;;17.70;43.30;;;;;;613528;231;26596;-66
2022/04/27 11:37:52;;;;;;;1.20;1.20;;;17.20;43.60;;;;;;619495;230;26607;-66
2022/04/27 11:40:19;;;;;;;1.95;1.45;;;17.20;43.60;;;;;;612470;232;26559;-66
2022/04/27 11:42:46;;;;;;;1.12;1.10;;;16.80;43.30;;;;;;617219;231;26643;-67
2022/04/27 11:45:13;;;;;;;1.50;1.40;;;16.30;42.70;;;;;;612254;231;26866;-67
2022/04/27 11:47:40;;;;;;;1.40;1.30;;;16.20;43.10;;;;;;618553;231;26664;-65
2022/04/27 11:50:08;;;;;;;1.30;1.20;;;16.50;43.00;;;;;;615454;228;26802;-66
2022/04/27 11:52:37;;;;;;;1.50;1.40;;;16.90;43.00;;;;;;618547;231;26563;-66
2022/04/27 11:55:09;;;;;;;1.40;1.40;;;17.50;42.70;;;;;;616919;226;26823;-68
2022/04/27 11:57:36;;;;;;;1.50;1.40;;;17.90;42.40;;;;;;612572;234;26621;-73
2022/04/27 12:00:05;;;;;;;9.57;2.00;;;18.10;43.80;;;;;;614104;232;26567;-74
2022/04/27 12:02:32;;;;;;;111.32;21.15;;;18.00;43.70;;;;;;614911;232;26591;-75
2022/04/27 12:04:59;;;;;;;110.10;21.45;;;18.00;44.70;;;;;;613678;232;26776;-74
2022/04/27 12:07:26;;;;;;;355.02;41.58;;;17.90;45.60;;;;;;616250;233;26559;-74
2022/04/27 12:09:56;;;;;;;159.60;31.35;;;17.30;46.50;;;;;;613869;233;26583;-74
2022/04/27 12:12:23;;;;;;;171.02;30.83;;;17.30;46.40;;;;;;616185;233;26822;-76
2022/04/27 12:14:50;;;;;;;63.92;15.90;;;17.00;44.50;;;;;;618108;231;26553;-76
2022/04/27 12:17:29;;;;;;;48.17;12.55;;;16.90;45.80;;;;;;614300;230;27254;-76
2022/04/27 12:19:57;;;;;;;82.60;20.15;;;17.00;47.10;;;;;;612919;231;26833;-77
2022/04/27 12:22:24;;;;;;;76.60;18.10;;;17.40;44.20;;;;;;619107;230;26559;-77
2022/04/27 12:24:51;;;;;;;59.75;15.32;;;17.70;44.20;;;;;;615151;233;26660;-76
2022/04/27 12:27:19;;;;;;;55.42;14.30;;;18.00;42.80;;;;;;615102;233;26642;-78
2022/04/27 12:29:47;;;;;;;44.83;13.25;;;18.50;42.20;;;;;;615413;233;26853;-76
2022/04/27 12:32:14;;;;;;;8.82;4.20;;;18.90;41.80;;;;;;615575;232;26611;-76
2022/04/27 12:39:47;;;;;;;43.10;10.60;;;20.00;41.20;;;;;;614768;234;26608;-76
2022/04/27 12:42:15;;;;;;;36.47;11.27;;;20.30;39.30;;;;;;615666;234;26583;-76
2022/04/27 12:44:41;;;;;;;28.87;8.70;;;20.80;39.20;;;;;;615516;234;26819;-75
2022/04/27 12:47:09;;;;;;;30.70;8.95;;;21.30;39.30;;;;;;615583;234;26584;-76
2022/04/27 12:49:37;;;;;;;23.10;7.72;;;21.30;38.70;;;;;;615380;231;26783;-76
2022/04/27 12:52:18;;;;;;;21.83;6.87;;;19.80;40.50;;;;;;618797;230;26609;-76
2022/04/27 12:54:45;;;;;;;19.35;6.62;;;19.80;40.60;;;;;;616575;229;26560;-75
2022/04/27 12:57:12;;;;;;;17.25;5.65;;;19.60;41.10;;;;;;619296;231;27065;-77
2022/04/27 12:59:51;;;;;;;8.80;3.05;;;19.40;41.60;;;;;;621418;231;26576;-76
2022/04/27 13:02:18;;;;;;;3.85;2.60;;;19.30;40.80;;;;;;612625;233;26569;-76
2022/04/27 13:04:47;;;;;;;5.20;2.65;;;19.20;41.70;;;;;;612628;235;26587;-75
2022/04/27 13:07:13;;;;;;;7.95;2.53;;;19.20;41.70;;;;;;612630;235;26628;-75
2022/04/27 13:12:13;;;;;;;7.15;2.50;;;19.20;40.90;;;;;;614269;232;26803;-76
2022/04/27 13:14:40;;;;;;;5.30;2.50;;;19.40;40.50;;;;;;613876;234;26530;-77
2022/04/27 13:17:07;;;;;;;4.45;2.10;;;19.20;40.80;;;;;;613737;232;26566;-76
2022/04/27 13:19:35;;;;;;;7.87;2.42;;;18.60;41.60;;;;;;613562;233;26578;-76
2022/04/27 13:22:04;;;;;;;3.92;2.10;;;18.40;41.50;;;;;;613449;233;26594;-76
2022/04/27 13:24:31;;;;;;;3.95;2.20;;;18.40;41.50;;;;;;613403;235;26587;-76